Aviation Digital Data Service (ADDS)

Output produced by METARs form (0316 UTC 21 December 2014)
found at http://aviationweather.gov/adds/metars/
 
KCDW 210253Z 04003KT 10SM OVC025 M01/M06 A3029 RMK AO2 SLP265 T10061061 50001
KMMU 210255Z AUTO 00000KT 10SM OVC027 01/M06 A3029 RMK AO2
KFWN 210253Z AUTO 07005KT 10SM OVC023 M02/M06 A3027 RMK AO2 SLP255 T10171061 58001
KTEB 210251Z 03003KT 10SM OVC030 00/M06 A3030 RMK AO2 SLP258 T00001061 53003
KTEB 210223Z 2102/2124 VRB03KT P6SM OVC030 
     FM211200 VRB03KT P6SM SCT030 BKN100 
     FM211600 34005KT P6SM SCT025 BKN035 
     FM212000 34005KT P6SM SCT035 SCT250
       
KEWR 210251Z 03006KT 10SM OVC028 00/M06 A3030 RMK AO2 SNB32E40 SLP259 P0000 60000 T00001056 53003
KEWR 210223Z 2102/2206 36005KT P6SM OVC030 
     FM211200 34007KT P6SM SCT030 BKN100 
     FM211600 33007KT P6SM SCT025 BKN035 
     FM212000 35006KT P6SM SCT035 SCT250
       
KABE 210251Z 08004KT 10SM OVC030 00/M07 A3028 RMK AO2 SLP258 T00001067 51001
KABE 210218Z 2102/2124 00000KT P6SM BKN035 
     TEMPO 2102/2104 BKN030 
     FM210600 00000KT P6SM BKN035 BKN120 
     FM211300 30004KT P6SM BKN035 BKN120 
     FM211800 31005KT P6SM SCT040
       
KAVP 210254Z AUTO 01004KT 10SM OVC023 M01/M07 A3023 RMK AO2 SLP246 T10111072 58004
KAVP 210216Z 2102/2124 VRB02KT P6SM OVC025 
     FM210800 12002KT P6SM OVC040 
     FM211700 VRB02KT P6SM SCT025
       
KSWF 210045Z VRB03KT 10SM OVC018 M02/M05 A3029
KSWF 210223Z 2102/2206 VRB03KT P6SM OVC020 
     FM211400 35007KT P6SM BKN030 
     FM211800 35007KT P6SM SCT030 BKN050 
     FM220000 02005KT P6SM SCT030 SCT250 AMD NOT SKED
       
KMSV 210255Z AUTO 36005KT 10SM OVC015 M04/M06 A3023 RMK AO1 54000
KPOU 210253Z AUTO 00000KT 10SM OVC026 M01/M07 A3031 RMK AO2 SLP263 T10111067 53003 TSNO
KPOU 210201Z 2102/2124 36004KT P6SM BKN025 OVC035 
     FM210300 VRB03KT P6SM OVC025 
     FM210600 00000KT P6SM VCSH OVC020 
     FM211400 VRB03KT P6SM SCT020 OVC035 
     FM211800 34004KT P6SM SCT035